sensor_id;sensor_type;location;lat;lon;timestamp;temperature;humidity
32394;DHT22;18853;45.426;9.206;2023-11-18T00:00:26;17.20;28.00
32394;DHT22;18853;45.426;9.206;2023-11-18T00:02:52;17.20;27.90
32394;DHT22;18853;45.426;9.206;2023-11-18T00:05:18;17.20;27.80
32394;DHT22;18853;45.426;9.206;2023-11-18T00:07:43;17.10;27.80
32394;DHT22;18853;45.426;9.206;2023-11-18T00:10:10;17.10;27.90
32394;DHT22;18853;45.426;9.206;2023-11-18T00:12:36;17.20;27.80
32394;DHT22;18853;45.426;9.206;2023-11-18T00:15:05;17.20;27.70
32394;DHT22;18853;45.426;9.206;2023-11-18T00:17:33;17.20;27.60
32394;DHT22;18853;45.426;9.206;2023-11-18T00:19:59;17.20;27.70
32394;DHT22;18853;45.426;9.206;2023-11-18T00:22:25;17.30;28.00
32394;DHT22;18853;45.426;9.206;2023-11-18T00:24:50;17.30;28.20
32394;DHT22;18853;45.426;9.206;2023-11-18T00:27:17;17.30;28.20
32394;DHT22;18853;45.426;9.206;2023-11-18T00:29:43;17.20;28.50
32394;DHT22;18853;45.426;9.206;2023-11-18T00:32:11;17.20;28.80
32394;DHT22;18853;45.426;9.206;2023-11-18T00:34:37;17.20;29.00
32394;DHT22;18853;45.426;9.206;2023-11-18T00:37:03;17.10;28.80
32394;DHT22;18853;45.426;9.206;2023-11-18T00:39:29;17.10;28.90
32394;DHT22;18853;45.426;9.206;2023-11-18T00:41:54;17.00;28.70
32394;DHT22;18853;45.426;9.206;2023-11-18T00:44:21;17.00;28.70
32394;DHT22;18853;45.426;9.206;2023-11-18T00:46:47;17.10;28.60
32394;DHT22;18853;45.426;9.206;2023-11-18T00:49:12;17.00;28.70
32394;DHT22;18853;45.426;9.206;2023-11-18T00:51:38;17.00;29.00
32394;DHT22;18853;45.426;9.206;2023-11-18T00:54:04;17.00;29.20
32394;DHT22;18853;45.426;9.206;2023-11-18T00:56:33;16.90;28.70
32394;DHT22;18853;45.426;9.206;2023-11-18T00:58:59;16.90;28.80
32394;DHT22;18853;45.426;9.206;2023-11-18T01:01:26;16.80;29.50
32394;DHT22;18853;45.426;9.206;2023-11-18T01:03:52;16.60;30.00
32394;DHT22;18853;45.426;9.206;2023-11-18T01:06:19;16.50;30.40
32394;DHT22;18853;45.426;9.206;2023-11-18T01:08:45;16.40;31.30
32394;DHT22;18853;45.426;9.206;2023-11-18T01:11:15;16.40;30.90
32394;DHT22;18853;45.426;9.206;2023-11-18T01:13:40;16.40;31.20
32394;DHT22;18853;45.426;9.206;2023-11-18T01:16:06;16.30;31.40
32394;DHT22;18853;45.426;9.206;2023-11-18T01:18:32;16.20;31.70
32394;DHT22;18853;45.426;9.206;2023-11-18T01:20:58;16.20;31.90
32394;DHT22;18853;45.426;9.206;2023-11-18T01:23:24;16.10;32.10
32394;DHT22;18853;45.426;9.206;2023-11-18T01:25:50;16.10;33.00
32394;DHT22;18853;45.426;9.206;2023-11-18T01:28:16;16.00;32.50
32394;DHT22;18853;45.426;9.206;2023-11-18T01:30:42;15.90;32.60
32394;DHT22;18853;45.426;9.206;2023-11-18T01:33:10;15.90;32.80
32394;DHT22;18853;45.426;9.206;2023-11-18T01:35:36;15.90;32.80
32394;DHT22;18853;45.426;9.206;2023-11-18T01:38:02;15.80;32.90
32394;DHT22;18853;45.426;9.206;2023-11-18T01:40:28;15.80;33.00
32394;DHT22;18853;45.426;9.206;2023-11-18T01:42:56;15.80;33.00
32394;DHT22;18853;45.426;9.206;2023-11-18T01:45:22;15.80;33.40
32394;DHT22;18853;45.426;9.206;2023-11-18T01:47:48;15.60;34.10
32394;DHT22;18853;45.426;9.206;2023-11-18T01:50:15;15.60;34.50
32394;DHT22;18853;45.426;9.206;2023-11-18T01:52:43;15.50;34.50
32394;DHT22;18853;45.426;9.206;2023-11-18T01:55:09;15.50;34.60
32394;DHT22;18853;45.426;9.206;2023-11-18T01:57:36;15.40;34.70
32394;DHT22;18853;45.426;9.206;2023-11-18T02:00:03;15.40;34.90
32394;DHT22;18853;45.426;9.206;2023-11-18T02:02:32;15.40;34.80
32394;DHT22;18853;45.426;9.206;2023-11-18T02:04:58;15.30;34.90
32394;DHT22;18853;45.426;9.206;2023-11-18T02:07:27;15.40;35.00
32394;DHT22;18853;45.426;9.206;2023-11-18T02:09:54;15.30;35.10
32394;DHT22;18853;45.426;9.206;2023-11-18T02:12:43;15.30;35.20
32394;DHT22;18853;45.426;9.206;2023-11-18T02:15:10;15.30;35.50
32394;DHT22;18853;45.426;9.206;2023-11-18T02:17:38;15.20;35.50
32394;DHT22;18853;45.426;9.206;2023-11-18T02:20:08;15.20;35.70
32394;DHT22;18853;45.426;9.206;2023-11-18T02:22:43;15.10;35.80
32394;DHT22;18853;45.426;9.206;2023-11-18T02:25:09;15.10;36.10
32394;DHT22;18853;45.426;9.206;2023-11-18T02:27:37;15.10;36.20
32394;DHT22;18853;45.426;9.206;2023-11-18T02:30:03;15.00;36.30
32394;DHT22;18853;45.426;9.206;2023-11-18T02:32:37;15.00;36.30
32394;DHT22;18853;45.426;9.206;2023-11-18T02:35:23;15.00;36.50
32394;DHT22;18853;45.426;9.206;2023-11-18T02:37:50;15.00;36.60
32394;DHT22;18853;45.426;9.206;2023-11-18T02:40:32;14.90;36.80
32394;DHT22;18853;45.426;9.206;2023-11-18T02:43:00;14.90;37.20
32394;DHT22;18853;45.426;9.206;2023-11-18T02:45:26;14.80;37.10
32394;DHT22;18853;45.426;9.206;2023-11-18T02:47:53;14.70;37.20
32394;DHT22;18853;45.426;9.206;2023-11-18T02:50:26;14.70;37.30
32394;DHT22;18853;45.426;9.206;2023-11-18T02:52:55;14.60;37.50
32394;DHT22;18853;45.426;9.206;2023-11-18T02:55:21;14.60;37.60
32394;DHT22;18853;45.426;9.206;2023-11-18T02:57:48;14.60;37.60
32394;DHT22;18853;45.426;9.206;2023-11-18T03:00:15;14.60;37.80
32394;DHT22;18853;45.426;9.206;2023-11-18T03:02:50;14.50;37.80
32394;DHT22;18853;45.426;9.206;2023-11-18T03:05:18;14.50;37.90
32394;DHT22;18853;45.426;9.206;2023-11-18T03:07:47;14.60;38.00
32394;DHT22;18853;45.426;9.206;2023-11-18T03:10:21;14.60;37.90
32394;DHT22;18853;45.426;9.206;2023-11-18T03:12:51;14.60;37.90
32394;DHT22;18853;45.426;9.206;2023-11-18T03:15:18;14.60;37.90
32394;DHT22;18853;45.426;9.206;2023-11-18T03:20:14;14.50;38.00
32394;DHT22;18853;45.426;9.206;2023-11-18T03:22:43;14.50;38.10
32394;DHT22;18853;45.426;9.206;2023-11-18T03:25:09;14.50;38.30
32394;DHT22;18853;45.426;9.206;2023-11-18T03:27:35;14.40;38.60
32394;DHT22;18853;45.426;9.206;2023-11-18T03:30:00;14.40;39.60
32394;DHT22;18853;45.426;9.206;2023-11-18T03:32:26;14.20;39.00
32394;DHT22;18853;45.426;9.206;2023-11-18T03:34:52;14.20;39.20
32394;DHT22;18853;45.426;9.206;2023-11-18T03:37:17;14.20;39.20
32394;DHT22;18853;45.426;9.206;2023-11-18T03:39:45;14.10;39.40
32394;DHT22;18853;45.426;9.206;2023-11-18T03:42:10;14.10;39.30
32394;DHT22;18853;45.426;9.206;2023-11-18T03:44:36;14.20;39.30
32394;DHT22;18853;45.426;9.206;2023-11-18T03:47:03;14.10;39.50
32394;DHT22;18853;45.426;9.206;2023-11-18T03:49:28;14.00;39.60
32394;DHT22;18853;45.426;9.206;2023-11-18T03:51:54;13.90;39.80
32394;DHT22;18853;45.426;9.206;2023-11-18T03:54:20;13.90;39.90
32394;DHT22;18853;45.426;9.206;2023-11-18T03:56:45;13.90;39.90
32394;DHT22;18853;45.426;9.206;2023-11-18T03:59:11;13.90;39.90
32394;DHT22;18853;45.426;9.206;2023-11-18T04:01:36;13.90;39.80
32394;DHT22;18853;45.426;9.206;2023-11-18T04:04:02;13.90;39.80
32394;DHT22;18853;45.426;9.206;2023-11-18T04:06:29;13.90;39.90
32394;DHT22;18853;45.426;9.206;2023-11-18T04:08:55;13.90;40.00
32394;DHT22;18853;45.426;9.206;2023-11-18T04:11:20;13.80;40.10
32394;DHT22;18853;45.426;9.206;2023-11-18T04:13:48;13.80;40.30
32394;DHT22;18853;45.426;9.206;2023-11-18T04:16:14;13.80;40.20
32394;DHT22;18853;45.426;9.206;2023-11-18T04:18:43;13.80;40.40
32394;DHT22;18853;45.426;9.206;2023-11-18T04:21:11;13.80;40.40
32394;DHT22;18853;45.426;9.206;2023-11-18T04:23:37;13.70;40.50
32394;DHT22;18853;45.426;9.206;2023-11-18T04:26:07;13.60;40.70
32394;DHT22;18853;45.426;9.206;2023-11-18T04:28:34;13.60;40.80
32394;DHT22;18853;45.426;9.206;2023-11-18T04:31:00;13.50;40.80
32394;DHT22;18853;45.426;9.206;2023-11-18T04:33:27;13.40;41.10
32394;DHT22;18853;45.426;9.206;2023-11-18T04:35:54;13.40;41.30
32394;DHT22;18853;45.426;9.206;2023-11-18T04:38:22;13.40;41.30
32394;DHT22;18853;45.426;9.206;2023-11-18T04:40:48;13.40;41.40
32394;DHT22;18853;45.426;9.206;2023-11-18T04:43:14;13.40;41.40
32394;DHT22;18853;45.426;9.206;2023-11-18T04:45:42;13.40;41.40
32394;DHT22;18853;45.426;9.206;2023-11-18T04:48:07;13.40;41.50
32394;DHT22;18853;45.426;9.206;2023-11-18T04:50:33;13.30;41.70
32394;DHT22;18853;45.426;9.206;2023-11-18T04:52:59;13.20;41.80
32394;DHT22;18853;45.426;9.206;2023-11-18T04:55:25;13.20;42.00
32394;DHT22;18853;45.426;9.206;2023-11-18T04:57:54;13.10;42.10
32394;DHT22;18853;45.426;9.206;2023-11-18T05:00:20;13.10;42.20
32394;DHT22;18853;45.426;9.206;2023-11-18T05:02:47;13.10;42.20
32394;DHT22;18853;45.426;9.206;2023-11-18T05:05:14;13.10;42.20
32394;DHT22;18853;45.426;9.206;2023-11-18T05:07:40;13.00;42.30
32394;DHT22;18853;45.426;9.206;2023-11-18T05:10:06;13.00;42.60
32394;DHT22;18853;45.426;9.206;2023-11-18T05:12:36;12.90;42.80
32394;DHT22;18853;45.426;9.206;2023-11-18T05:15:02;12.80;42.90
32394;DHT22;18853;45.426;9.206;2023-11-18T05:17:29;12.90;42.90
32394;DHT22;18853;45.426;9.206;2023-11-18T05:19:55;12.90;42.90
32394;DHT22;18853;45.426;9.206;2023-11-18T05:22:21;12.90;43.00
32394;DHT22;18853;45.426;9.206;2023-11-18T05:24:47;12.90;43.20
32394;DHT22;18853;45.426;9.206;2023-11-18T05:27:14;12.80;43.10
32394;DHT22;18853;45.426;9.206;2023-11-18T05:29:39;12.80;43.30
32394;DHT22;18853;45.426;9.206;2023-11-18T05:32:07;12.80;43.50
32394;DHT22;18853;45.426;9.206;2023-11-18T05:34:33;12.60;43.70
32394;DHT22;18853;45.426;9.206;2023-11-18T05:37:00;12.60;43.80
32394;DHT22;18853;45.426;9.206;2023-11-18T05:39:26;12.60;44.00
32394;DHT22;18853;45.426;9.206;2023-11-18T05:41:59;12.50;44.00
32394;DHT22;18853;45.426;9.206;2023-11-18T05:44:25;12.50;44.10
32394;DHT22;18853;45.426;9.206;2023-11-18T05:46:59;12.50;44.10
32394;DHT22;18853;45.426;9.206;2023-11-18T05:49:25;12.50;44.20
32394;DHT22;18853;45.426;9.206;2023-11-18T05:51:50;12.50;44.20
32394;DHT22;18853;45.426;9.206;2023-11-18T05:54:17;12.50;44.20
32394;DHT22;18853;45.426;9.206;2023-11-18T05:56:43;12.50;44.10
32394;DHT22;18853;45.426;9.206;2023-11-18T05:59:08;12.50;44.10
32394;DHT22;18853;45.426;9.206;2023-11-18T06:01:34;12.60;44.10
32394;DHT22;18853;45.426;9.206;2023-11-18T06:04:00;12.60;44.10
32394;DHT22;18853;45.426;9.206;2023-11-18T06:06:26;12.60;44.20
32394;DHT22;18853;45.426;9.206;2023-11-18T06:08:52;12.60;44.10
32394;DHT22;18853;45.426;9.206;2023-11-18T06:11:19;12.60;44.10
32394;DHT22;18853;45.426;9.206;2023-11-18T06:13:49;12.60;44.20
32394;DHT22;18853;45.426;9.206;2023-11-18T06:16:23;12.60;44.30
32394;DHT22;18853;45.426;9.206;2023-11-18T06:18:51;12.60;44.40
32394;DHT22;18853;45.426;9.206;2023-11-18T06:21:18;12.60;44.40
32394;DHT22;18853;45.426;9.206;2023-11-18T06:23:46;12.60;44.50
32394;DHT22;18853;45.426;9.206;2023-11-18T06:26:12;12.50;44.60
32394;DHT22;18853;45.426;9.206;2023-11-18T06:28:39;12.50;44.80
32394;DHT22;18853;45.426;9.206;2023-11-18T06:31:05;12.60;44.90
32394;DHT22;18853;45.426;9.206;2023-11-18T06:33:36;12.50;44.70
32394;DHT22;18853;45.426;9.206;2023-11-18T06:36:04;12.50;44.70
32394;DHT22;18853;45.426;9.206;2023-11-18T06:38:30;12.50;44.80
32394;DHT22;18853;45.426;9.206;2023-11-18T06:40:56;12.40;44.80
32394;DHT22;18853;45.426;9.206;2023-11-18T06:43:23;12.40;44.90
32394;DHT22;18853;45.426;9.206;2023-11-18T06:45:51;12.40;45.10
32394;DHT22;18853;45.426;9.206;2023-11-18T06:48:17;12.40;45.30
32394;DHT22;18853;45.426;9.206;2023-11-18T06:50:46;12.30;45.30
32394;DHT22;18853;45.426;9.206;2023-11-18T06:53:11;12.30;45.40
32394;DHT22;18853;45.426;9.206;2023-11-18T06:55:37;12.30;45.60
32394;DHT22;18853;45.426;9.206;2023-11-18T06:58:03;12.30;45.60
32394;DHT22;18853;45.426;9.206;2023-11-18T07:00:28;12.30;45.50
32394;DHT22;18853;45.426;9.206;2023-11-18T07:02:55;12.30;45.50
32394;DHT22;18853;45.426;9.206;2023-11-18T07:05:21;12.30;45.20
32394;DHT22;18853;45.426;9.206;2023-11-18T07:07:50;12.20;45.30
32394;DHT22;18853;45.426;9.206;2023-11-18T07:10:16;12.10;45.40
32394;DHT22;18853;45.426;9.206;2023-11-18T07:12:47;12.10;45.80
32394;DHT22;18853;45.426;9.206;2023-11-18T07:15:15;12.00;45.90
32394;DHT22;18853;45.426;9.206;2023-11-18T07:17:42;12.00;46.20
32394;DHT22;18853;45.426;9.206;2023-11-18T07:20:08;12.00;46.30
32394;DHT22;18853;45.426;9.206;2023-11-18T07:22:37;12.00;46.30
32394;DHT22;18853;45.426;9.206;2023-11-18T07:25:02;12.00;46.40
32394;DHT22;18853;45.426;9.206;2023-11-18T07:27:28;12.10;46.50
32394;DHT22;18853;45.426;9.206;2023-11-18T07:29:54;12.10;46.70
32394;DHT22;18853;45.426;9.206;2023-11-18T07:32:23;12.00;46.70
32394;DHT22;18853;45.426;9.206;2023-11-18T07:34:50;12.10;46.60
32394;DHT22;18853;45.426;9.206;2023-11-18T07:37:15;12.10;46.70
32394;DHT22;18853;45.426;9.206;2023-11-18T07:39:54;12.10;46.60
32394;DHT22;18853;45.426;9.206;2023-11-18T07:42:21;12.20;46.60
32394;DHT22;18853;45.426;9.206;2023-11-18T07:44:51;12.20;46.70
32394;DHT22;18853;45.426;9.206;2023-11-18T07:47:17;12.20;46.60
32394;DHT22;18853;45.426;9.206;2023-11-18T07:49:45;12.20;46.40
32394;DHT22;18853;45.426;9.206;2023-11-18T07:52:11;12.20;46.60
32394;DHT22;18853;45.426;9.206;2023-11-18T07:54:37;12.30;46.60
32394;DHT22;18853;45.426;9.206;2023-11-18T07:57:04;12.30;46.60
32394;DHT22;18853;45.426;9.206;2023-11-18T07:59:35;12.30;46.80
32394;DHT22;18853;45.426;9.206;2023-11-18T08:02:01;12.30;47.20
32394;DHT22;18853;45.426;9.206;2023-11-18T08:04:30;12.30;47.40
32394;DHT22;18853;45.426;9.206;2023-11-18T08:06:57;12.30;48.10
32394;DHT22;18853;45.426;9.206;2023-11-18T08:09:22;12.30;47.30
32394;DHT22;18853;45.426;9.206;2023-11-18T08:11:51;12.30;47.30
32394;DHT22;18853;45.426;9.206;2023-11-18T08:14:16;12.30;47.50
32394;DHT22;18853;45.426;9.206;2023-11-18T08:16:42;12.40;47.50
32394;DHT22;18853;45.426;9.206;2023-11-18T08:19:08;12.40;48.00
32394;DHT22;18853;45.426;9.206;2023-11-18T08:21:36;12.40;47.50
32394;DHT22;18853;45.426;9.206;2023-11-18T08:24:05;12.40;47.60
32394;DHT22;18853;45.426;9.206;2023-11-18T08:26:34;12.50;47.60
32394;DHT22;18853;45.426;9.206;2023-11-18T08:28:59;12.60;47.30
32394;DHT22;18853;45.426;9.206;2023-11-18T08:31:26;12.60;47.30
32394;DHT22;18853;45.426;9.206;2023-11-18T08:33:52;12.60;47.50
32394;DHT22;18853;45.426;9.206;2023-11-18T08:36:20;12.70;47.50
32394;DHT22;18853;45.426;9.206;2023-11-18T08:38:46;12.70;47.50
32394;DHT22;18853;45.426;9.206;2023-11-18T08:41:12;12.80;47.30
32394;DHT22;18853;45.426;9.206;2023-11-18T08:43:38;12.90;47.00
32394;DHT22;18853;45.426;9.206;2023-11-18T08:46:06;13.00;46.80
32394;DHT22;18853;45.426;9.206;2023-11-18T08:48:32;13.00;46.50
32394;DHT22;18853;45.426;9.206;2023-11-18T08:50:59;13.10;46.30
32394;DHT22;18853;45.426;9.206;2023-11-18T08:53:27;13.20;46.10
32394;DHT22;18853;45.426;9.206;2023-11-18T08:55:53;13.20;46.00
32394;DHT22;18853;45.426;9.206;2023-11-18T08:58:21;13.30;45.80
32394;DHT22;18853;45.426;9.206;2023-11-18T09:00:51;13.40;45.70
32394;DHT22;18853;45.426;9.206;2023-11-18T09:03:21;13.50;46.50
32394;DHT22;18853;45.426;9.206;2023-11-18T09:05:57;13.90;51.70
32394;DHT22;18853;45.426;9.206;2023-11-18T09:08:26;14.30;52.00
32394;DHT22;18853;45.426;9.206;2023-11-18T09:10:53;14.40;48.00
32394;DHT22;18853;45.426;9.206;2023-11-18T09:13:28;14.40;46.80
32394;DHT22;18853;45.426;9.206;2023-11-18T09:16:01;14.40;46.10
32394;DHT22;18853;45.426;9.206;2023-11-18T09:18:30;14.40;45.80
32394;DHT22;18853;45.426;9.206;2023-11-18T09:20:58;14.30;46.00
32394;DHT22;18853;45.426;9.206;2023-11-18T09:23:26;14.30;45.30
32394;DHT22;18853;45.426;9.206;2023-11-18T09:25:53;14.20;45.40
32394;DHT22;18853;45.426;9.206;2023-11-18T09:28:24;14.30;45.30
32394;DHT22;18853;45.426;9.206;2023-11-18T09:30:50;14.30;44.70
32394;DHT22;18853;45.426;9.206;2023-11-18T09:33:23;14.30;44.70
32394;DHT22;18853;45.426;9.206;2023-11-18T09:36:08;14.30;45.20
32394;DHT22;18853;45.426;9.206;2023-11-18T09:38:38;14.30;44.80
32394;DHT22;18853;45.426;9.206;2023-11-18T09:41:07;14.30;44.90
32394;DHT22;18853;45.426;9.206;2023-11-18T09:43:36;14.30;45.00
32394;DHT22;18853;45.426;9.206;2023-11-18T09:46:14;14.40;44.90
32394;DHT22;18853;45.426;9.206;2023-11-18T09:48:44;14.40;45.00
32394;DHT22;18853;45.426;9.206;2023-11-18T09:51:24;14.50;44.70
32394;DHT22;18853;45.426;9.206;2023-11-18T09:53:52;14.50;43.80
32394;DHT22;18853;45.426;9.206;2023-11-18T09:56:38;14.60;43.80
32394;DHT22;18853;45.426;9.206;2023-11-18T10:01:42;14.70;43.30
32394;DHT22;18853;45.426;9.206;2023-11-18T10:04:13;14.70;43.50
32394;DHT22;18853;45.426;9.206;2023-11-18T10:06:43;14.70;43.20
32394;DHT22;18853;45.426;9.206;2023-11-18T10:09:10;14.80;43.50
32394;DHT22;18853;45.426;9.206;2023-11-18T10:11:52;14.80;43.20
32394;DHT22;18853;45.426;9.206;2023-11-18T10:14:20;14.80;43.20
32394;DHT22;18853;45.426;9.206;2023-11-18T10:16:46;14.80;43.40
32394;DHT22;18853;45.426;9.206;2023-11-18T10:19:14;14.80;43.20
32394;DHT22;18853;45.426;9.206;2023-11-18T10:21:42;14.90;43.80
32394;DHT22;18853;45.426;9.206;2023-11-18T10:24:08;14.90;43.50
32394;DHT22;18853;45.426;9.206;2023-11-18T10:26:41;15.00;43.30
32394;DHT22;18853;45.426;9.206;2023-11-18T10:29:09;14.90;43.00
32394;DHT22;18853;45.426;9.206;2023-11-18T10:31:34;15.00;42.80
32394;DHT22;18853;45.426;9.206;2023-11-18T10:34:01;15.00;42.90
32394;DHT22;18853;45.426;9.206;2023-11-18T10:36:26;15.00;43.00
32394;DHT22;18853;45.426;9.206;2023-11-18T10:38:53;15.10;43.40
32394;DHT22;18853;45.426;9.206;2023-11-18T10:41:22;15.10;43.40
32394;DHT22;18853;45.426;9.206;2023-11-18T10:43:48;15.20;43.60
32394;DHT22;18853;45.426;9.206;2023-11-18T10:46:15;15.10;43.60
32394;DHT22;18853;45.426;9.206;2023-11-18T10:48:42;15.20;43.60
32394;DHT22;18853;45.426;9.206;2023-11-18T10:51:13;15.20;43.70
32394;DHT22;18853;45.426;9.206;2023-11-18T10:53:40;15.20;43.60
32394;DHT22;18853;45.426;9.206;2023-11-18T10:56:21;15.20;43.40
32394;DHT22;18853;45.426;9.206;2023-11-18T10:58:58;15.20;44.30
32394;DHT22;18853;45.426;9.206;2023-11-18T11:01:35;15.20;43.80
32394;DHT22;18853;45.426;9.206;2023-11-18T11:04:08;15.30;43.60
32394;DHT22;18853;45.426;9.206;2023-11-18T11:06:39;15.30;43.60
32394;DHT22;18853;45.426;9.206;2023-11-18T11:09:07;15.30;43.70
32394;DHT22;18853;45.426;9.206;2023-11-18T11:11:49;15.40;43.90
32394;DHT22;18853;45.426;9.206;2023-11-18T11:14:20;15.40;43.70
32394;DHT22;18853;45.426;9.206;2023-11-18T11:16:54;15.40;43.80
32394;DHT22;18853;45.426;9.206;2023-11-18T11:19:33;15.50;44.30
32394;DHT22;18853;45.426;9.206;2023-11-18T11:22:06;15.60;43.90
32394;DHT22;18853;45.426;9.206;2023-11-18T11:28:24;15.70;43.60
32394;DHT22;18853;45.426;9.206;2023-11-18T11:30:45;15.70;43.70
32394;DHT22;18853;45.426;9.206;2023-11-18T11:33:35;15.80;43.30
32394;DHT22;18853;45.426;9.206;2023-11-18T11:36:11;16.00;43.40
32394;DHT22;18853;45.426;9.206;2023-11-18T11:38:38;16.00;42.80
32394;DHT22;18853;45.426;9.206;2023-11-18T11:41:04;16.10;42.80
32394;DHT22;18853;45.426;9.206;2023-11-18T11:43:32;16.30;42.50
32394;DHT22;18853;45.426;9.206;2023-11-18T11:46:01;16.30;42.10
32394;DHT22;18853;45.426;9.206;2023-11-18T11:48:29;16.40;42.40
32394;DHT22;18853;45.426;9.206;2023-11-18T11:53:52;16.60;40.90
32394;DHT22;18853;45.426;9.206;2023-11-18T11:56:19;16.80;41.20
32394;DHT22;18853;45.426;9.206;2023-11-18T11:58:49;16.90;40.90
32394;DHT22;18853;45.426;9.206;2023-11-18T12:01:28;17.10;40.80
32394;DHT22;18853;45.426;9.206;2023-11-18T12:04:02;17.20;40.40
32394;DHT22;18853;45.426;9.206;2023-11-18T12:06:32;17.30;40.40
32394;DHT22;18853;45.426;9.206;2023-11-18T12:09:01;17.50;39.70
32394;DHT22;18853;45.426;9.206;2023-11-18T12:11:33;17.60;39.60
32394;DHT22;18853;45.426;9.206;2023-11-18T12:14:06;17.70;39.20
32394;DHT22;18853;45.426;9.206;2023-11-18T12:16:57;17.80;39.40
32394;DHT22;18853;45.426;9.206;2023-11-18T12:19:30;17.90;38.60
32394;DHT22;18853;45.426;9.206;2023-11-18T12:21:57;18.00;38.90
32394;DHT22;18853;45.426;9.206;2023-11-18T12:24:26;18.10;39.20
32394;DHT22;18853;45.426;9.206;2023-11-18T12:26:51;18.20;38.90
32394;DHT22;18853;45.426;9.206;2023-11-18T12:29:34;18.20;38.70
32394;DHT22;18853;45.426;9.206;2023-11-18T12:31:59;18.40;38.10
32394;DHT22;18853;45.426;9.206;2023-11-18T12:34:51;18.40;37.90
32394;DHT22;18853;45.426;9.206;2023-11-18T12:40:43;18.70;37.80
32394;DHT22;18853;45.426;9.206;2023-11-18T12:43:15;18.80;36.80
32394;DHT22;18853;45.426;9.206;2023-11-18T12:48:14;19.10;35.70
32394;DHT22;18853;45.426;9.206;2023-11-18T12:50:41;19.30;34.10
32394;DHT22;18853;45.426;9.206;2023-11-18T12:53:10;19.40;34.20
32394;DHT22;18853;45.426;9.206;2023-11-18T12:55:36;19.60;33.40
32394;DHT22;18853;45.426;9.206;2023-11-18T12:58:04;19.80;33.00
32394;DHT22;18853;45.426;9.206;2023-11-18T13:00:31;19.90;32.40
32394;DHT22;18853;45.426;9.206;2023-11-18T13:03:00;20.00;32.20
32394;DHT22;18853;45.426;9.206;2023-11-18T13:05:25;20.20;31.20
32394;DHT22;18853;45.426;9.206;2023-11-18T13:07:58;20.30;30.00
32394;DHT22;18853;45.426;9.206;2023-11-18T13:10:26;20.50;29.60
32394;DHT22;18853;45.426;9.206;2023-11-18T13:12:53;20.60;28.90
32394;DHT22;18853;45.426;9.206;2023-11-18T13:15:19;20.70;28.60
32394;DHT22;18853;45.426;9.206;2023-11-18T13:18:01;20.90;28.60
32394;DHT22;18853;45.426;9.206;2023-11-18T13:20:28;21.10;27.90
32394;DHT22;18853;45.426;9.206;2023-11-18T13:22:54;21.20;28.20
32394;DHT22;18853;45.426;9.206;2023-11-18T13:25:22;21.30;27.70
32394;DHT22;18853;45.426;9.206;2023-11-18T13:27:48;21.40;27.70
32394;DHT22;18853;45.426;9.206;2023-11-18T13:30:15;21.50;27.90
32394;DHT22;18853;45.426;9.206;2023-11-18T13:32:43;21.70;27.50
32394;DHT22;18853;45.426;9.206;2023-11-18T13:35:11;21.90;27.60
32394;DHT22;18853;45.426;9.206;2023-11-18T13:37:39;22.00;26.70
32394;DHT22;18853;45.426;9.206;2023-11-18T13:40:07;22.10;26.90
32394;DHT22;18853;45.426;9.206;2023-11-18T13:42:33;22.30;26.50
32394;DHT22;18853;45.426;9.206;2023-11-18T13:45:14;22.40;26.30
32394;DHT22;18853;45.426;9.206;2023-11-18T13:47:51;22.50;26.20
32394;DHT22;18853;45.426;9.206;2023-11-18T13:50:20;22.60;26.20
32394;DHT22;18853;45.426;9.206;2023-11-18T13:52:46;22.60;26.30
32394;DHT22;18853;45.426;9.206;2023-11-18T13:55:15;22.70;26.00
32394;DHT22;18853;45.426;9.206;2023-11-18T13:57:52;22.80;25.60
32394;DHT22;18853;45.426;9.206;2023-11-18T14:00:18;22.80;25.50
32394;DHT22;18853;45.426;9.206;2023-11-18T14:02:48;22.80;25.30
32394;DHT22;18853;45.426;9.206;2023-11-18T14:05:15;22.80;25.10
32394;DHT22;18853;45.426;9.206;2023-11-18T14:07:42;22.80;25.20
32394;DHT22;18853;45.426;9.206;2023-11-18T14:10:09;22.80;25.50
32394;DHT22;18853;45.426;9.206;2023-11-18T14:12:38;22.90;25.50
32394;DHT22;18853;45.426;9.206;2023-11-18T14:15:04;22.80;25.20
32394;DHT22;18853;45.426;9.206;2023-11-18T14:17:30;22.70;25.40
32394;DHT22;18853;45.426;9.206;2023-11-18T14:19:56;22.70;25.20
32394;DHT22;18853;45.426;9.206;2023-11-18T14:22:21;22.70;25.70
32394;DHT22;18853;45.426;9.206;2023-11-18T14:24:47;22.60;25.50
32394;DHT22;18853;45.426;9.206;2023-11-18T14:27:13;22.40;25.80
32394;DHT22;18853;45.426;9.206;2023-11-18T14:29:39;22.10;25.90
32394;DHT22;18853;45.426;9.206;2023-11-18T14:32:04;22.00;26.10
32394;DHT22;18853;45.426;9.206;2023-11-18T14:34:31;21.90;26.60
32394;DHT22;18853;45.426;9.206;2023-11-18T14:36:57;21.90;26.70
32394;DHT22;18853;45.426;9.206;2023-11-18T14:39:22;21.80;26.90
32394;DHT22;18853;45.426;9.206;2023-11-18T14:41:49;21.70;27.00
32394;DHT22;18853;45.426;9.206;2023-11-18T14:44:15;21.70;27.20
32394;DHT22;18853;45.426;9.206;2023-11-18T14:46:42;21.60;27.30
32394;DHT22;18853;45.426;9.206;2023-11-18T14:49:08;21.50;27.70
32394;DHT22;18853;45.426;9.206;2023-11-18T14:51:35;21.40;27.60
32394;DHT22;18853;45.426;9.206;2023-11-18T14:54:01;21.20;27.60
32394;DHT22;18853;45.426;9.206;2023-11-18T14:56:26;21.10;28.00
32394;DHT22;18853;45.426;9.206;2023-11-18T14:58:52;21.00;28.80
32394;DHT22;18853;45.426;9.206;2023-11-18T15:01:18;20.90;28.30
32394;DHT22;18853;45.426;9.206;2023-11-18T15:03:44;20.70;28.60
32394;DHT22;18853;45.426;9.206;2023-11-18T15:06:11;20.60;28.70
32394;DHT22;18853;45.426;9.206;2023-11-18T15:08:37;20.50;29.20
32394;DHT22;18853;45.426;9.206;2023-11-18T15:11:05;20.40;29.30
32394;DHT22;18853;45.426;9.206;2023-11-18T15:13:32;20.30;29.50
32394;DHT22;18853;45.426;9.206;2023-11-18T15:15:58;20.30;29.80
32394;DHT22;18853;45.426;9.206;2023-11-18T15:18:24;20.20;29.90
32394;DHT22;18853;45.426;9.206;2023-11-18T15:20:49;20.10;29.90
32394;DHT22;18853;45.426;9.206;2023-11-18T15:23:17;20.10;29.90
32394;DHT22;18853;45.426;9.206;2023-11-18T15:25:43;20.00;30.30
32394;DHT22;18853;45.426;9.206;2023-11-18T15:28:09;20.00;30.50
32394;DHT22;18853;45.426;9.206;2023-11-18T15:30:39;20.00;30.60
32394;DHT22;18853;45.426;9.206;2023-11-18T15:33:06;19.90;30.70
32394;DHT22;18853;45.426;9.206;2023-11-18T15:35:37;19.90;30.80
32394;DHT22;18853;45.426;9.206;2023-11-18T15:38:04;19.80;31.80
32394;DHT22;18853;45.426;9.206;2023-11-18T15:40:34;19.70;32.20
32394;DHT22;18853;45.426;9.206;2023-11-18T15:43:00;19.60;32.60
32394;DHT22;18853;45.426;9.206;2023-11-18T15:45:26;19.50;32.60
32394;DHT22;18853;45.426;9.206;2023-11-18T15:47:52;19.50;32.80
32394;DHT22;18853;45.426;9.206;2023-11-18T15:50:18;19.40;33.50
32394;DHT22;18853;45.426;9.206;2023-11-18T15:52:48;19.30;34.00